createdAt,value
2022-09-14T00:02:44.261Z,94.17
2022-09-14T00:06:16.510Z,95.30
2022-09-14T00:09:55.767Z,96.48
2022-09-14T00:13:35.997Z,97.71
2022-09-14T00:17:17.352Z,97.09
2022-09-14T00:20:50.821Z,97.76
2022-09-14T00:24:32.109Z,99.06
2022-09-14T00:28:06.205Z,99.07
2022-09-14T00:31:44.545Z,99.03
2022-09-14T00:35:27.307Z,98.67
2022-09-14T00:39:00.966Z,99.19
2022-09-14T00:42:39.761Z,100.00
2022-09-14T00:46:22.619Z,98.84
2022-09-14T00:50:00.804Z,99.82
2022-09-14T00:53:31.719Z,97.88
2022-09-14T00:57:12.845Z,96.85
2022-09-14T01:00:53.557Z,97.52
2022-09-14T01:04:37.700Z,96.12
2022-09-14T01:08:13.916Z,95.47
2022-09-14T01:11:55.292Z,95.74
2022-09-14T01:16:06.776Z,96.28
2022-09-14T01:19:21.329Z,95.46
2022-09-14T01:23:11.792Z,95.67
2022-09-14T01:26:59.034Z,97.04
2022-09-14T01:30:43.647Z,95.05
2022-09-14T01:34:41.110Z,94.47
2022-09-14T01:38:38.202Z,93.96
2022-09-14T01:42:21.159Z,93.61
2022-09-14T01:46:16.380Z,93.32
2022-09-14T01:50:02.839Z,93.56
2022-09-14T01:54:01.979Z,92.87
2022-09-14T01:57:45.889Z,92.78
2022-09-14T02:01:31.156Z,92.93
2022-09-14T02:05:51.760Z,92.44
2022-09-14T02:09:31.513Z,92.40
2022-09-14T02:13:14.524Z,91.84
2022-09-14T02:16:46.895Z,92.66
2022-09-14T02:20:35.542Z,91.99
2022-09-14T02:24:14.465Z,92.63
2022-09-14T02:27:52.849Z,92.25
2022-09-14T02:31:33.541Z,92.02
2022-09-14T02:35:52.511Z,91.55
2022-09-14T02:39:43.318Z,91.59
2022-09-14T02:43:47.971Z,91.42
2022-09-14T02:47:44.949Z,91.14
2022-09-14T02:51:42.555Z,91.03
2022-09-14T02:55:24.774Z,91.05
2022-09-14T02:59:04.203Z,91.49
2022-09-14T03:02:43.460Z,91.11
2022-09-14T03:06:21.811Z,90.89
2022-09-14T03:09:59.470Z,91.01
2022-09-14T03:13:38.468Z,90.81
2022-09-14T03:17:18.693Z,91.04
2022-09-14T03:21:11.206Z,90.92
2022-09-14T03:24:51.112Z,90.91
2022-09-14T03:28:31.566Z,90.78
2022-09-14T03:32:08.988Z,90.89
2022-09-14T03:35:46.641Z,90.88
2022-09-14T03:39:25.469Z,90.86
2022-09-14T03:43:03.020Z,91.08
2022-09-14T03:46:44.369Z,90.79
2022-09-14T03:50:22.864Z,91.89
2022-09-14T03:54:01.325Z,91.55
2022-09-14T03:57:39.554Z,91.32
2022-09-14T04:01:20.088Z,91.38
2022-09-14T04:04:59.308Z,91.37
2022-09-14T04:08:39.785Z,91.41
2022-09-14T04:12:17.827Z,91.35
2022-09-14T04:15:58.163Z,91.86
2022-09-14T04:19:36.385Z,92.85
2022-09-14T04:23:13.761Z,93.65
2022-09-14T04:26:50.945Z,93.90
2022-09-14T04:30:28.670Z,94.34
2022-09-14T04:34:07.056Z,94.85
2022-09-14T04:37:45.125Z,94.49
2022-09-14T04:41:23.702Z,93.76
2022-09-14T04:45:02.816Z,93.41
2022-09-14T04:48:43.087Z,93.12
2022-09-14T04:52:21.601Z,92.58
2022-09-14T04:56:04.388Z,92.26
2022-09-14T04:59:42.672Z,92.03
2022-09-14T05:03:20.156Z,91.78
2022-09-14T05:06:58.029Z,92.90
2022-09-14T05:10:35.786Z,93.33
2022-09-14T05:14:14.382Z,93.95
2022-09-14T05:17:52.726Z,94.77
2022-09-14T05:21:33.113Z,94.72
2022-09-14T05:25:11.371Z,94.67
2022-09-14T05:28:54.687Z,93.83
2022-09-14T05:32:33.388Z,93.34
2022-09-14T05:36:11.413Z,93.16
2022-09-14T05:39:51.263Z,92.98
2022-09-14T05:43:30.267Z,92.59
2022-09-14T05:47:08.042Z,92.34
2022-09-14T05:50:46.633Z,91.96
2022-09-14T05:54:25.169Z,91.67
2022-09-14T05:58:03.714Z,91.53
2022-09-14T06:01:42.987Z,91.26
2022-09-14T06:05:23.498Z,90.58
2022-09-14T06:09:01.506Z,90.51
2022-09-14T06:12:39.742Z,90.27
2022-09-14T06:16:21.144Z,90.23
2022-09-14T06:20:04.456Z,89.58
2022-09-14T06:23:45.086Z,89.59
2022-09-14T06:27:23.984Z,89.67
2022-09-14T06:31:02.959Z,89.48
2022-09-14T06:34:40.857Z,89.36
2022-09-14T06:38:18.902Z,89.28
2022-09-14T06:41:56.544Z,89.45
2022-09-14T06:45:34.635Z,89.64
2022-09-14T06:49:15.732Z,89.10
2022-09-14T06:52:53.671Z,88.31
2022-09-14T06:56:42.207Z,88.32
2022-09-14T07:00:15.579Z,88.13
2022-09-14T07:03:54.409Z,88.00
2022-09-14T07:07:32.917Z,87.75
2022-09-14T07:11:15.529Z,87.92
2022-09-14T07:14:48.673Z,87.56
2022-09-14T07:18:27.598Z,87.33
2022-09-14T07:22:22.537Z,87.05
2022-09-14T07:26:01.082Z,86.81
2022-09-14T07:29:31.840Z,84.81
2022-09-14T07:33:06.028Z,84.66
2022-09-14T07:36:39.911Z,83.80
2022-09-14T07:40:21.749Z,82.18
2022-09-14T07:44:08.306Z,81.15
2022-09-14T07:47:40.251Z,80.26
2022-09-14T07:51:18.520Z,79.14
2022-09-14T07:54:56.858Z,79.07
2022-09-14T07:58:35.863Z,78.63
2022-09-14T08:02:14.050Z,78.11
2022-09-14T08:05:59.074Z,77.68
2022-09-14T08:09:39.193Z,77.43
2022-09-14T08:13:16.756Z,76.06
2022-09-14T08:16:55.481Z,76.23
2022-09-14T08:20:34.215Z,75.85
2022-09-14T08:24:17.719Z,75.60
2022-09-14T08:27:55.598Z,75.11
2022-09-14T08:31:37.594Z,74.55
2022-09-14T08:35:15.730Z,74.24
2022-09-14T08:38:55.941Z,73.62
2022-09-14T08:42:34.202Z,73.13
2022-09-14T08:46:36.754Z,72.35
2022-09-14T08:50:18.719Z,70.81
2022-09-14T08:53:58.723Z,69.13
2022-09-14T08:57:47.860Z,68.55
2022-09-14T09:01:34.014Z,68.02
2022-09-14T09:05:37.368Z,67.47
2022-09-14T09:09:18.320Z,66.56
2022-09-14T09:12:59.625Z,65.85
2022-09-14T09:16:38.702Z,64.67
2022-09-14T09:20:30.330Z,64.22
2022-09-14T09:24:17.886Z,63.46
2022-09-14T09:28:10.194Z,63.27
2022-09-14T09:31:53.687Z,62.58
2022-09-14T09:35:32.908Z,61.62
2022-09-14T09:39:10.398Z,60.93
2022-09-14T09:43:09.524Z,60.40
2022-09-14T09:47:00.005Z,59.62
2022-09-14T09:50:49.414Z,58.97
2022-09-14T09:54:31.167Z,57.89
2022-09-14T09:58:47.934Z,57.41
2022-09-14T10:02:26.455Z,57.30
2022-09-14T10:06:11.319Z,56.68
2022-09-14T10:10:03.094Z,56.24
2022-09-14T10:13:41.593Z,55.70
2022-09-14T10:17:23.406Z,55.43
2022-09-14T10:21:03.923Z,55.70
2022-09-14T10:25:01.985Z,55.55
2022-09-14T10:28:43.561Z,55.94
2022-09-14T10:32:25.010Z,56.83
2022-09-14T10:36:05.613Z,57.78
2022-09-14T10:40:08.437Z,58.74
2022-09-14T10:44:07.963Z,59.38
2022-09-14T10:48:00.949Z,61.55
2022-09-14T10:52:07.115Z,63.88
2022-09-14T10:55:59.917Z,65.06
2022-09-14T10:59:38.626Z,67.19
2022-09-14T11:03:27.717Z,68.85
2022-09-14T11:07:21.938Z,58.24
2022-09-14T11:11:20.683Z,54.59
2022-09-14T11:15:06.391Z,54.14
2022-09-14T11:19:03.053Z,55.79
2022-09-14T11:22:55.637Z,50.26
2022-09-14T11:26:42.068Z,49.43
2022-09-14T11:30:28.547Z,46.08
2022-09-14T11:34:28.305Z,47.70
2022-09-14T11:38:15.149Z,45.83
2022-09-14T11:41:59.472Z,44.47
2022-09-14T11:45:53.028Z,43.87
2022-09-14T11:49:59.082Z,43.81
2022-09-14T11:53:40.097Z,43.28
2022-09-14T11:57:37.695Z,42.30
2022-09-14T12:01:30.712Z,41.03
2022-09-14T12:05:09.717Z,41.10
2022-09-14T12:08:47.604Z,40.70
2022-09-14T12:12:30.877Z,41.47
2022-09-14T12:16:10.396Z,41.00
2022-09-14T12:19:50.862Z,41.32
2022-09-14T12:23:49.989Z,40.56
2022-09-14T12:27:31.694Z,41.31
2022-09-14T12:31:13.736Z,42.59
2022-09-14T12:35:30.236Z,43.56
2022-09-14T12:39:28.007Z,43.76
2022-09-14T12:43:34.161Z,45.20
2022-09-14T12:47:27.393Z,44.98
2022-09-14T12:51:05.883Z,44.49
2022-09-14T12:55:21.010Z,45.87
2022-09-14T12:58:46.130Z,45.41
2022-09-14T13:02:44.942Z,44.40
2022-09-14T13:06:24.603Z,45.46
2022-09-14T13:10:06.388Z,46.83
2022-09-14T13:13:45.105Z,46.65
2022-09-14T13:17:22.745Z,46.06
2022-09-14T13:21:04.497Z,45.81
2022-09-14T13:24:47.798Z,44.87
2022-09-14T13:28:30.090Z,43.77
2022-09-14T13:32:18.784Z,42.64
2022-09-14T13:36:02.276Z,43.79
2022-09-14T13:39:41.859Z,43.28
2022-09-14T13:43:21.380Z,43.04
2022-09-14T13:47:02.920Z,43.61
2022-09-14T13:50:45.564Z,44.17
2022-09-14T13:54:30.414Z,45.79
2022-09-14T13:58:11.874Z,45.93
2022-09-14T14:01:59.831Z,46.76
2022-09-14T14:05:42.445Z,47.22
2022-09-14T14:09:20.033Z,47.70
2022-09-14T14:12:57.994Z,47.27
2022-09-14T14:16:36.987Z,46.91
2022-09-14T14:20:29.125Z,47.05
2022-09-14T14:24:28.728Z,47.17
2022-09-14T14:28:17.244Z,46.71
2022-09-14T14:31:57.854Z,46.08
2022-09-14T14:35:35.685Z,42.77
2022-09-14T14:39:13.004Z,43.19
2022-09-14T14:42:51.930Z,42.29
2022-09-14T14:46:31.275Z,41.08
2022-09-14T14:50:17.151Z,41.96
2022-09-14T14:53:54.496Z,41.40
2022-09-14T14:57:32.469Z,41.18
2022-09-14T15:01:10.588Z,39.78
2022-09-14T15:04:49.085Z,39.28
2022-09-14T15:08:26.284Z,38.94
2022-09-14T15:12:03.784Z,39.60
2022-09-14T15:15:42.616Z,38.42
2022-09-14T15:19:20.238Z,39.31
2022-09-14T15:22:57.193Z,38.86
2022-09-14T15:26:35.744Z,39.32
2022-09-14T15:30:15.245Z,39.25
2022-09-14T15:33:53.092Z,38.76
2022-09-14T15:37:31.961Z,38.72
2022-09-14T15:41:12.170Z,38.09
2022-09-14T15:44:51.965Z,37.73
2022-09-14T15:48:29.758Z,38.25
2022-09-14T15:52:07.707Z,39.98
2022-09-14T15:55:46.783Z,40.64
2022-09-14T15:59:24.495Z,40.76
2022-09-14T16:03:02.842Z,41.91
2022-09-14T16:06:41.473Z,43.25
2022-09-14T16:10:23.578Z,50.80
2022-09-14T16:13:57.587Z,54.83
2022-09-14T16:17:35.652Z,57.00
2022-09-14T16:21:17.204Z,58.38
2022-09-14T16:24:55.394Z,59.28
2022-09-14T16:28:33.137Z,59.05
2022-09-14T16:32:10.235Z,60.72
2022-09-14T16:35:49.016Z,61.39
2022-09-14T16:39:28.102Z,61.96
2022-09-14T16:43:05.734Z,62.49
2022-09-14T16:46:44.169Z,61.90
2022-09-14T16:50:21.538Z,61.83
2022-09-14T16:54:00.200Z,61.16
2022-09-14T16:57:38.537Z,60.73
2022-09-14T17:01:26.045Z,61.35
2022-09-14T17:05:04.118Z,61.22
2022-09-14T17:08:43.917Z,61.11
2022-09-14T17:12:24.228Z,60.73
2022-09-14T17:16:04.887Z,60.56
2022-09-14T17:19:44.495Z,60.46
2022-09-14T17:23:23.271Z,60.74
2022-09-14T17:27:01.543Z,62.09
2022-09-14T17:30:39.259Z,63.12
2022-09-14T17:34:17.121Z,64.47
2022-09-14T17:37:55.444Z,63.79
2022-09-14T17:41:33.314Z,63.43
2022-09-14T17:45:11.203Z,63.53
2022-09-14T17:48:50.995Z,63.50
2022-09-14T17:52:30.529Z,64.55
2022-09-14T17:56:10.828Z,65.19
2022-09-14T17:59:49.597Z,66.82
2022-09-14T18:03:27.171Z,66.48
2022-09-14T18:07:05.890Z,66.11
2022-09-14T18:10:43.960Z,66.98
2022-09-14T18:14:21.597Z,66.26
2022-09-14T18:17:59.345Z,65.86
2022-09-14T18:21:38.906Z,65.88
2022-09-14T18:25:16.506Z,66.23
2022-09-14T18:28:55.070Z,67.59
2022-09-14T18:32:33.972Z,67.31
2022-09-14T18:36:11.363Z,68.14
2022-09-14T18:39:50.252Z,67.90
2022-09-14T18:43:27.374Z,68.32
2022-09-14T18:47:05.408Z,68.40
2022-09-14T18:50:43.334Z,67.84
2022-09-14T18:54:26.744Z,68.25
2022-09-14T18:58:06.658Z,68.22
2022-09-14T19:01:44.321Z,68.77
2022-09-14T19:05:24.202Z,68.50
2022-09-14T19:09:02.137Z,69.21
2022-09-14T19:12:41.577Z,69.59
2022-09-14T19:16:20.958Z,70.22
2022-09-14T19:20:00.069Z,69.91
2022-09-14T19:23:39.612Z,70.03
2022-09-14T19:27:17.722Z,70.07
2022-09-14T19:30:54.875Z,70.30
2022-09-14T19:34:33.654Z,69.90
2022-09-14T19:38:11.337Z,69.62
2022-09-14T19:41:48.884Z,69.71
2022-09-14T19:45:26.636Z,69.64
2022-09-14T19:49:16.370Z,69.80
2022-09-14T19:52:55.471Z,69.68
2022-09-14T19:56:34.469Z,69.60
2022-09-14T20:00:17.573Z,69.29
2022-09-14T20:03:56.117Z,69.18
2022-09-14T20:07:34.680Z,69.21
2022-09-14T20:11:19.087Z,69.15
2022-09-14T20:14:58.681Z,69.33
2022-09-14T20:18:36.262Z,69.55
2022-09-14T20:22:16.735Z,69.26
2022-09-14T20:25:54.852Z,69.43
2022-09-14T20:29:34.344Z,69.43
2022-09-14T20:33:12.200Z,69.67
2022-09-14T20:36:52.142Z,69.41
2022-09-14T20:40:30.300Z,69.64
2022-09-14T20:44:08.719Z,69.73
2022-09-14T20:47:45.803Z,69.70
2022-09-14T20:51:25.273Z,69.59
2022-09-14T20:55:02.808Z,69.67
2022-09-14T20:58:41.466Z,69.68
2022-09-14T21:02:19.582Z,69.74
2022-09-14T21:06:00.585Z,69.98
2022-09-14T21:09:39.898Z,69.90
2022-09-14T21:13:17.025Z,70.13
2022-09-14T21:16:55.636Z,70.10
2022-09-14T21:20:37.337Z,70.07
2022-09-14T21:24:16.530Z,70.32
2022-09-14T21:27:54.955Z,70.08
2022-09-14T21:31:34.489Z,69.82
2022-09-14T21:35:11.818Z,69.49
2022-09-14T21:38:53.678Z,69.28
2022-09-14T21:42:32.257Z,69.11
2022-09-14T21:46:10.488Z,69.05
2022-09-14T21:49:48.284Z,69.18
2022-09-14T21:53:25.628Z,68.97
2022-09-14T21:57:03.339Z,68.93
2022-09-14T22:00:41.306Z,68.89
2022-09-14T22:04:22.222Z,68.81
2022-09-14T22:07:59.764Z,68.79
2022-09-14T22:11:38.318Z,68.72
2022-09-14T22:15:15.987Z,68.60
2022-09-14T22:18:56.194Z,68.50
2022-09-14T22:22:33.461Z,68.53
2022-09-14T22:26:12.129Z,68.34
2022-09-14T22:29:51.399Z,68.37
2022-09-14T22:33:30.273Z,68.37
2022-09-14T22:37:08.461Z,68.54
2022-09-14T22:40:46.544Z,68.59
2022-09-14T22:44:23.562Z,68.54
2022-09-14T22:48:02.699Z,68.53
2022-09-14T22:51:40.212Z,68.71
2022-09-14T22:55:18.256Z,68.59
2022-09-14T22:58:57.233Z,68.57
2022-09-14T23:02:35.984Z,68.54
2022-09-14T23:06:15.065Z,68.38
2022-09-14T23:09:53.589Z,68.42
2022-09-14T23:13:31.429Z,68.22
2022-09-14T23:17:09.211Z,68.03
2022-09-14T23:20:46.932Z,68.17
2022-09-14T23:24:24.797Z,68.13
2022-09-14T23:28:04.778Z,68.10
2022-09-14T23:31:43.559Z,67.95
2022-09-14T23:35:21.193Z,67.89
2022-09-14T23:38:59.021Z,68.04
2022-09-14T23:42:36.304Z,67.96
2022-09-14T23:46:14.437Z,67.85
2022-09-14T23:49:51.858Z,67.78
2022-09-14T23:53:29.751Z,67.77
2022-09-14T23:57:07.281Z,67.80
